createdAt,value
2018-05-04T00:00:13.878Z,72.10
2018-05-04T00:02:40.090Z,72.50
2018-05-04T00:05:06.384Z,72.20
2018-05-04T00:07:33.516Z,73.10
2018-05-04T00:09:59.724Z,73.10
2018-05-04T00:12:25.940Z,73.40
2018-05-04T00:14:52.267Z,73.50
2018-05-04T00:17:18.469Z,73.50
2018-05-04T00:19:45.403Z,73.50
2018-05-04T00:22:12.352Z,74.30
2018-05-04T00:24:39.321Z,74.50
2018-05-04T00:27:06.036Z,74.30
2018-05-04T00:29:32.347Z,74.30
2018-05-04T00:31:58.568Z,74.80
2018-05-04T00:34:24.772Z,74.80
2018-05-04T00:36:50.962Z,74.80
2018-05-04T00:39:17.217Z,75.50
2018-05-04T00:41:43.415Z,75.70
2018-05-04T00:44:09.660Z,74.90
2018-05-04T00:46:35.900Z,74.80
2018-05-04T00:49:02.108Z,75.10
2018-05-04T00:51:28.328Z,75.60
2018-05-04T00:54:06.828Z,75.30
2018-05-04T00:56:33.071Z,75.40
2018-05-04T00:58:59.276Z,76.40
2018-05-04T01:01:26.284Z,77.00
2018-05-04T01:03:52.489Z,76.90
2018-05-04T01:06:18.815Z,76.80
2018-05-04T01:08:45.109Z,76.80
2018-05-04T01:11:11.372Z,76.60
2018-05-04T01:13:44.782Z,77.30
2018-05-04T01:16:11.008Z,77.80
2018-05-04T01:18:37.224Z,78.00
2018-05-04T01:21:03.473Z,78.70
2018-05-04T01:23:29.682Z,78.70
2018-05-04T01:25:55.945Z,78.90
2018-05-04T01:28:22.180Z,79.10
2018-05-04T01:30:48.415Z,79.40
2018-05-04T01:33:14.669Z,79.70
2018-05-04T01:35:40.865Z,80.00
2018-05-04T01:38:07.081Z,80.30
2018-05-04T01:40:33.264Z,80.70
2018-05-04T01:42:59.472Z,81.20
2018-05-04T01:45:26.452Z,81.80
2018-05-04T01:47:52.676Z,81.80
2018-05-04T01:50:19.702Z,81.30
2018-05-04T01:52:46.093Z,81.30
2018-05-04T01:55:12.314Z,81.60
2018-05-04T01:57:38.545Z,81.30
2018-05-04T02:00:05.533Z,81.80
2018-05-04T02:02:31.739Z,81.80
2018-05-04T02:04:58.902Z,82.00
2018-05-04T02:07:25.189Z,82.00
2018-05-04T02:09:51.411Z,82.10
2018-05-04T02:12:17.638Z,82.50
2018-05-04T02:14:43.872Z,82.50
2018-05-04T02:17:10.095Z,82.50
2018-05-04T02:19:36.317Z,82.50
2018-05-04T02:22:02.535Z,82.80
2018-05-04T02:24:28.776Z,82.70
2018-05-04T02:26:55.022Z,82.70
2018-05-04T02:29:22.784Z,83.10
2018-05-04T02:31:49.014Z,83.00
2018-05-04T02:34:15.230Z,83.20
2018-05-04T02:36:41.425Z,83.10
2018-05-04T02:39:07.772Z,83.10
2018-05-04T02:41:34.804Z,84.00
2018-05-04T02:44:01.037Z,83.80
2018-05-04T02:46:27.257Z,83.20
2018-05-04T02:48:53.491Z,83.00
2018-05-04T02:51:19.724Z,82.90
2018-05-04T02:53:46.243Z,83.30
2018-05-04T02:56:12.465Z,83.60
2018-05-04T02:58:38.684Z,83.90
2018-05-04T03:01:05.676Z,83.90
2018-05-04T03:03:31.980Z,83.80
2018-05-04T03:05:58.199Z,83.90
2018-05-04T03:08:24.492Z,83.90
2018-05-04T03:10:50.716Z,84.00
2018-05-04T03:13:16.920Z,84.10
2018-05-04T03:15:44.040Z,84.70
2018-05-04T03:18:10.269Z,84.00
2018-05-04T03:20:36.519Z,84.10
2018-05-04T03:23:02.839Z,84.50
2018-05-04T03:25:29.944Z,84.30
2018-05-04T03:27:56.890Z,83.80
2018-05-04T03:30:23.103Z,83.80
2018-05-04T03:32:49.339Z,83.50
2018-05-04T03:35:15.573Z,84.10
2018-05-04T03:37:42.513Z,83.70
2018-05-04T03:40:09.513Z,84.00
2018-05-04T03:42:35.779Z,83.90
2018-05-04T03:45:02.892Z,83.80
2018-05-04T03:47:29.100Z,83.80
2018-05-04T03:49:55.338Z,83.80
2018-05-04T03:52:21.595Z,83.80
2018-05-04T03:54:47.981Z,83.70
2018-05-04T03:57:26.441Z,83.60
2018-05-04T04:00:05.144Z,83.90
2018-05-04T04:02:43.961Z,84.50
2018-05-04T04:05:10.316Z,84.10
2018-05-04T04:07:36.550Z,84.10
2018-05-04T04:10:03.593Z,83.90
2018-05-04T04:12:29.916Z,83.90
2018-05-04T04:14:56.100Z,84.40
2018-05-04T04:17:22.308Z,84.30
2018-05-04T04:19:49.049Z,84.30
2018-05-04T04:22:15.375Z,84.40
2018-05-04T04:24:42.497Z,84.50
2018-05-04T04:27:08.716Z,83.80
2018-05-04T04:29:34.932Z,84.30
2018-05-04T04:32:01.161Z,84.10
2018-05-04T04:34:27.388Z,84.60
2018-05-04T04:36:53.617Z,84.60
2018-05-04T04:39:19.845Z,84.40
2018-05-04T04:41:46.394Z,84.70
2018-05-04T04:44:13.693Z,84.70
2018-05-04T04:46:39.902Z,84.60
2018-05-04T04:49:06.119Z,84.10
2018-05-04T04:51:32.373Z,84.50
2018-05-04T04:53:58.613Z,85.10
2018-05-04T04:56:24.885Z,84.60
2018-05-04T04:58:51.244Z,84.30
2018-05-04T05:01:17.557Z,84.00
2018-05-04T05:03:43.777Z,84.10
2018-05-04T05:06:10.067Z,84.20
2018-05-04T05:08:36.290Z,85.00
2018-05-04T05:11:02.512Z,84.80
2018-05-04T05:13:28.835Z,85.50
2018-05-04T05:15:55.235Z,84.90
2018-05-04T05:18:22.415Z,84.60
2018-05-04T05:20:48.691Z,84.50
2018-05-04T05:23:15.725Z,84.30
2018-05-04T05:25:41.958Z,85.00
2018-05-04T05:28:08.205Z,85.20
2018-05-04T05:30:35.258Z,83.70
2018-05-04T05:33:02.220Z,82.10
2018-05-04T05:35:29.638Z,82.20
2018-05-04T05:37:56.600Z,82.10
2018-05-04T05:40:23.605Z,82.40
2018-05-04T05:42:49.848Z,82.30
2018-05-04T05:45:16.070Z,81.30
2018-05-04T05:47:42.316Z,81.50
2018-05-04T05:50:08.552Z,81.90
2018-05-04T05:52:35.512Z,80.30
2018-05-04T05:55:02.588Z,79.90
2018-05-04T05:57:29.092Z,79.70
2018-05-04T05:59:56.039Z,79.00
2018-05-04T06:02:23.000Z,79.20
2018-05-04T06:04:49.975Z,78.90
2018-05-04T06:07:16.172Z,78.70
2018-05-04T06:09:43.161Z,76.50
2018-05-04T06:12:09.400Z,76.50
2018-05-04T06:14:35.679Z,75.40
2018-05-04T06:17:01.968Z,72.80
2018-05-04T06:19:28.196Z,72.30
2018-05-04T06:21:54.457Z,72.30
2018-05-04T06:24:20.659Z,73.40
2018-05-04T06:26:46.891Z,71.80
2018-05-04T06:29:14.623Z,71.10
2018-05-04T06:31:40.887Z,71.10
2018-05-04T06:34:07.965Z,70.20
2018-05-04T06:36:34.288Z,70.10
2018-05-04T06:39:00.569Z,70.80
2018-05-04T06:41:26.770Z,69.30
2018-05-04T06:43:52.976Z,68.70
2018-05-04T06:46:19.693Z,70.50
2018-05-04T06:48:46.693Z,68.30
2018-05-04T06:51:12.894Z,68.20
2018-05-04T06:53:39.132Z,66.60
2018-05-04T06:56:06.164Z,65.80
2018-05-04T06:58:32.449Z,65.70
2018-05-04T07:00:58.686Z,63.50
2018-05-04T07:03:25.784Z,54.80
2018-05-04T07:05:53.185Z,54.60
2018-05-04T07:08:19.432Z,48.50
2018-05-04T07:10:45.693Z,44.70
2018-05-04T07:13:11.934Z,39.80
2018-05-04T07:15:38.963Z,36.40
2018-05-04T07:18:05.157Z,36.30
2018-05-04T07:20:32.141Z,33.40
2018-05-04T07:22:58.402Z,33.40
2018-05-04T07:25:24.597Z,32.50
2018-05-04T07:27:50.803Z,31.40
2018-05-04T07:30:17.898Z,30.20
2018-05-04T07:32:44.566Z,28.20
2018-05-04T07:35:12.125Z,26.70
2018-05-04T07:37:38.365Z,26.60
2018-05-04T07:40:05.294Z,25.70
2018-05-04T07:42:31.520Z,25.70
2018-05-04T07:44:58.471Z,25.70
2018-05-04T07:47:25.452Z,24.50
2018-05-04T07:49:51.998Z,24.50
2018-05-04T07:52:18.387Z,25.10
2018-05-04T07:54:44.843Z,25.00
2018-05-04T07:57:11.051Z,24.90
2018-05-04T07:59:38.007Z,26.30
2018-05-04T08:02:04.267Z,26.20
2018-05-04T08:04:30.532Z,26.90
2018-05-04T08:06:56.867Z,25.80
2018-05-04T08:09:23.876Z,25.30
2018-05-04T08:11:50.203Z,25.20
2018-05-04T08:14:16.464Z,24.90
2018-05-04T08:16:42.652Z,24.20
2018-05-04T08:19:08.886Z,23.30
2018-05-04T08:21:35.216Z,24.40
2018-05-04T08:24:01.461Z,23.40
2018-05-04T08:26:27.849Z,23.60
2018-05-04T08:28:54.224Z,22.40
2018-05-04T08:31:20.483Z,21.90
2018-05-04T08:33:47.465Z,21.30
2018-05-04T08:36:13.757Z,21.20
2018-05-04T08:38:40.850Z,22.70
2018-05-04T08:41:07.128Z,22.60
2018-05-04T08:43:34.109Z,20.90
2018-05-04T08:46:00.460Z,20.90
2018-05-04T08:48:26.765Z,21.00
2018-05-04T08:50:53.040Z,21.30
2018-05-04T08:53:19.244Z,21.70
2018-05-04T08:55:45.605Z,21.70
2018-05-04T08:58:11.816Z,21.70
2018-05-04T09:00:38.080Z,20.70
2018-05-04T09:03:04.380Z,22.00
2018-05-04T09:05:30.872Z,21.70
2018-05-04T09:07:57.881Z,21.10
2018-05-04T09:10:24.095Z,21.00
2018-05-04T09:12:50.413Z,21.60
2018-05-04T09:15:17.345Z,20.90
2018-05-04T09:17:43.852Z,20.90
2018-05-04T09:20:10.204Z,22.30
2018-05-04T09:22:36.519Z,20.10
2018-05-04T09:25:02.946Z,20.80
2018-05-04T09:27:29.997Z,22.00
2018-05-04T09:29:56.296Z,22.00
2018-05-04T09:32:23.288Z,21.00
2018-05-04T09:34:49.521Z,20.90
2018-05-04T09:37:15.752Z,21.20
2018-05-04T09:39:41.976Z,20.80
2018-05-04T09:42:08.234Z,21.40
2018-05-04T09:44:34.503Z,22.10
2018-05-04T09:47:00.748Z,20.90
2018-05-04T09:49:26.969Z,19.70
2018-05-04T09:51:53.190Z,20.50
2018-05-04T09:54:19.651Z,19.60
2018-05-04T09:56:45.876Z,20.40
2018-05-04T09:59:12.234Z,20.30
2018-05-04T10:01:38.549Z,19.80
2018-05-04T10:04:04.802Z,20.80
2018-05-04T10:06:31.040Z,21.10
2018-05-04T10:08:57.994Z,20.50
2018-05-04T10:11:24.770Z,20.40
2018-05-04T10:13:52.841Z,21.40
2018-05-04T10:16:19.137Z,20.30
2018-05-04T10:18:45.495Z,21.40
2018-05-04T10:21:12.102Z,20.30
2018-05-04T10:23:38.449Z,21.50
2018-05-04T10:26:04.971Z,21.20
2018-05-04T10:28:31.985Z,20.80
2018-05-04T10:30:59.031Z,22.40
2018-05-04T10:33:25.435Z,22.40
2018-05-04T10:35:51.895Z,23.70
2018-05-04T10:38:18.416Z,22.70
2018-05-04T10:40:44.787Z,22.50
2018-05-04T10:43:12.668Z,24.00
2018-05-04T10:45:39.102Z,24.40
2018-05-04T10:48:06.260Z,25.40
2018-05-04T10:50:32.525Z,25.40
2018-05-04T10:52:58.821Z,24.80
2018-05-04T10:55:25.196Z,24.80
2018-05-04T10:57:51.568Z,24.70
2018-05-04T11:00:17.846Z,24.70
2018-05-04T11:02:44.067Z,25.30
2018-05-04T11:05:11.377Z,25.20
2018-05-04T11:07:37.644Z,25.20
2018-05-04T11:10:03.876Z,24.20
2018-05-04T11:12:30.112Z,25.60
2018-05-04T11:14:56.359Z,25.80
2018-05-04T11:17:26.297Z,26.20
2018-05-04T11:19:52.675Z,26.10
2018-05-04T11:22:19.000Z,26.50
2018-05-04T11:24:45.215Z,26.70
2018-05-04T11:27:11.467Z,26.10
2018-05-04T11:29:37.799Z,25.50
2018-05-04T11:32:04.286Z,26.00
2018-05-04T11:34:30.606Z,26.00
2018-05-04T11:36:57.658Z,26.50
2018-05-04T11:39:24.314Z,26.50
2018-05-04T11:41:50.639Z,27.30
2018-05-04T11:44:16.868Z,27.90
2018-05-04T11:46:43.186Z,26.10
2018-05-04T11:49:09.549Z,27.20
2018-05-04T11:51:35.828Z,27.70
2018-05-04T11:54:02.129Z,26.60
2018-05-04T11:56:28.394Z,27.60
2018-05-04T11:58:55.407Z,26.10
2018-05-04T12:01:21.639Z,26.10
2018-05-04T12:03:48.666Z,27.20
2018-05-04T12:06:14.879Z,27.10
2018-05-04T12:08:41.122Z,26.60
2018-05-04T12:11:07.359Z,25.70
2018-05-04T12:13:33.677Z,27.10
2018-05-04T12:15:59.904Z,26.50
2018-05-04T12:18:26.140Z,28.50
2018-05-04T12:20:52.378Z,27.20
2018-05-04T12:23:18.611Z,26.60
2018-05-04T12:25:45.633Z,26.80
2018-05-04T12:28:11.848Z,26.90
2018-05-04T12:30:38.157Z,27.40
2018-05-04T12:33:04.603Z,27.40
2018-05-04T12:35:30.942Z,28.50
2018-05-04T12:37:57.290Z,28.50
2018-05-04T12:40:23.908Z,27.50
2018-05-04T12:42:50.188Z,28.80
2018-05-04T12:45:16.403Z,28.20
2018-05-04T12:47:42.649Z,27.80
2018-05-04T12:50:09.882Z,28.00
2018-05-04T12:52:36.200Z,27.90
2018-05-04T12:55:02.565Z,27.10
2018-05-04T12:57:29.536Z,27.00
2018-05-04T12:59:55.763Z,26.90
2018-05-04T13:02:22.111Z,28.10
2018-05-04T13:04:48.471Z,27.60
2018-05-04T13:07:14.852Z,27.80
2018-05-04T13:09:41.842Z,28.80
2018-05-04T13:12:08.365Z,28.70
2018-05-04T13:14:34.690Z,26.90
2018-05-04T13:17:00.930Z,26.60
2018-05-04T13:19:27.254Z,26.90
2018-05-04T13:21:53.564Z,27.70
2018-05-04T13:24:20.337Z,27.00
2018-05-04T13:26:46.545Z,26.90
2018-05-04T13:29:12.875Z,27.60
2018-05-04T13:31:39.150Z,27.30
2018-05-04T13:34:05.365Z,27.80
2018-05-04T13:36:31.618Z,27.90
2018-05-04T13:38:57.840Z,28.40
2018-05-04T13:41:25.081Z,28.80
2018-05-04T13:43:52.181Z,28.00
2018-05-04T13:46:18.430Z,27.90
2018-05-04T13:48:44.726Z,28.70
2018-05-04T13:51:11.079Z,27.50
2018-05-04T13:53:37.989Z,28.10
2018-05-04T13:56:04.223Z,28.00
2018-05-04T13:58:30.504Z,28.00
2018-05-04T14:00:58.200Z,28.90
2018-05-04T14:03:24.459Z,28.80
2018-05-04T14:05:50.732Z,28.30
2018-05-04T14:08:17.853Z,27.60
2018-05-04T14:10:44.855Z,28.20
2018-05-04T14:13:11.155Z,28.20
2018-05-04T14:15:38.120Z,29.00
2018-05-04T14:18:05.458Z,28.90
2018-05-04T14:20:31.754Z,28.70
2018-05-04T14:22:58.001Z,28.60
2018-05-04T14:25:24.299Z,28.00
2018-05-04T14:27:50.557Z,29.40
2018-05-04T14:30:16.758Z,29.50
2018-05-04T14:32:43.035Z,28.60
2018-05-04T14:35:10.061Z,28.40
2018-05-04T14:37:36.376Z,28.40
2018-05-04T14:40:02.661Z,29.20
2018-05-04T14:42:28.933Z,30.00
2018-05-04T14:44:55.289Z,30.00
2018-05-04T14:47:21.594Z,29.40
2018-05-04T14:49:48.597Z,29.80
2018-05-04T14:52:14.838Z,29.80
2018-05-04T14:54:41.127Z,29.60
2018-05-04T14:57:08.070Z,29.70
2018-05-04T14:59:34.296Z,29.70
2018-05-04T15:02:00.678Z,29.30
2018-05-04T15:04:26.998Z,29.50
2018-05-04T15:06:53.465Z,29.60
2018-05-04T15:09:19.769Z,29.60
2018-05-04T15:11:46.000Z,29.00
2018-05-04T15:14:12.228Z,29.30
2018-05-04T15:16:38.477Z,29.60
2018-05-04T15:19:04.730Z,29.90
2018-05-04T15:21:31.741Z,29.70
2018-05-04T15:23:58.000Z,29.60
2018-05-04T15:26:25.016Z,30.10
2018-05-04T15:28:51.250Z,29.80
2018-05-04T15:31:17.482Z,29.30
2018-05-04T15:33:44.455Z,29.30
2018-05-04T15:36:10.772Z,29.30
2018-05-04T15:38:37.034Z,29.90
2018-05-04T15:41:03.309Z,29.60
2018-05-04T15:43:33.640Z,30.00
2018-05-04T15:46:02.061Z,30.00
2018-05-04T15:48:34.413Z,30.00
2018-05-04T15:51:07.403Z,30.20
2018-05-04T15:53:34.452Z,30.10
2018-05-04T15:56:01.464Z,30.40
2018-05-04T15:58:27.686Z,30.40
2018-05-04T16:00:53.912Z,30.00
2018-05-04T16:03:22.018Z,30.60
2018-05-04T16:05:48.243Z,30.10
2018-05-04T16:08:14.612Z,30.80
2018-05-04T16:10:40.874Z,30.30
2018-05-04T16:13:07.779Z,31.10
2018-05-04T16:15:34.162Z,31.70
2018-05-04T16:18:00.412Z,32.30
2018-05-04T16:20:26.631Z,31.70
2018-05-04T16:22:52.906Z,32.10
2018-05-04T16:25:19.225Z,33.10
2018-05-04T16:27:45.507Z,32.00
2018-05-04T16:30:11.949Z,32.20
2018-05-04T16:32:38.306Z,32.30
2018-05-04T16:35:04.485Z,32.30
2018-05-04T16:37:30.700Z,32.30
2018-05-04T16:39:56.947Z,32.50
2018-05-04T16:42:23.187Z,33.30
2018-05-04T16:44:49.470Z,32.60
2018-05-04T16:47:22.082Z,32.00
2018-05-04T16:49:49.317Z,32.30
2018-05-04T16:52:15.669Z,33.00
2018-05-04T16:54:42.072Z,33.80
2018-05-04T16:57:08.482Z,33.50
2018-05-04T16:59:34.954Z,34.00
2018-05-04T17:02:01.221Z,34.20
2018-05-04T17:04:27.543Z,33.70
2018-05-04T17:06:53.852Z,34.50
2018-05-04T17:09:20.238Z,34.70
2018-05-04T17:11:47.325Z,34.30
2018-05-04T17:14:13.612Z,34.30
2018-05-04T17:16:39.902Z,34.40
2018-05-04T17:19:06.237Z,34.50
2018-05-04T17:21:32.479Z,34.50
2018-05-04T17:23:59.594Z,34.30
2018-05-04T17:26:27.382Z,35.30
2018-05-04T17:28:53.691Z,35.20
2018-05-04T17:31:20.830Z,35.30
2018-05-04T17:33:47.086Z,35.20
2018-05-04T17:36:13.326Z,35.20
2018-05-04T17:38:40.289Z,35.60
2018-05-04T17:41:06.565Z,35.60
2018-05-04T17:43:32.907Z,35.50
2018-05-04T17:45:59.121Z,35.90
2018-05-04T17:48:25.523Z,36.20
2018-05-04T17:50:51.765Z,36.00
2018-05-04T17:53:18.166Z,35.70
2018-05-04T17:55:44.462Z,35.50
2018-05-04T17:58:10.738Z,35.50
2018-05-04T18:00:36.976Z,35.90
2018-05-04T18:03:03.316Z,35.60
2018-05-04T18:05:29.541Z,35.80
2018-05-04T18:07:55.964Z,35.60
2018-05-04T18:10:22.438Z,35.90
2018-05-04T18:12:50.572Z,36.40
2018-05-04T18:15:16.867Z,36.40
2018-05-04T18:17:43.969Z,36.80
2018-05-04T18:20:10.965Z,37.20
2018-05-04T18:22:37.925Z,37.30
2018-05-04T18:25:04.312Z,37.30
2018-05-04T18:27:31.518Z,37.60
2018-05-04T18:29:58.880Z,38.30
2018-05-04T18:32:25.302Z,38.20
2018-05-04T18:34:51.558Z,37.60
2018-05-04T18:37:17.777Z,39.80
2018-05-04T18:39:44.807Z,39.30
2018-05-04T18:42:11.065Z,38.80
2018-05-04T18:44:37.392Z,38.50
2018-05-04T18:47:04.745Z,38.60
2018-05-04T18:49:31.357Z,38.50
2018-05-04T18:51:57.719Z,39.30
2018-05-04T18:54:24.760Z,39.90
2018-05-04T18:56:51.021Z,39.90
2018-05-04T18:59:17.248Z,41.20
2018-05-04T19:01:44.221Z,40.70
2018-05-04T19:04:10.482Z,40.60
2018-05-04T19:06:36.775Z,42.00
2018-05-04T19:09:03.173Z,42.40
2018-05-04T19:11:30.172Z,42.70
2018-05-04T19:13:56.442Z,42.60
2018-05-04T19:16:22.683Z,41.30
2018-05-04T19:18:49.668Z,42.80
2018-05-04T19:21:15.899Z,42.90
2018-05-04T19:23:42.249Z,42.20
2018-05-04T19:26:09.397Z,42.00
2018-05-04T19:28:36.409Z,43.10
2018-05-04T19:31:02.654Z,43.10
2018-05-04T19:33:28.963Z,43.50
2018-05-04T19:35:55.196Z,44.20
2018-05-04T19:38:21.434Z,43.30
2018-05-04T19:40:48.445Z,45.70
2018-05-04T19:43:15.638Z,45.80
2018-05-04T19:45:41.910Z,45.80
2018-05-04T19:48:08.327Z,46.20
2018-05-04T19:50:34.592Z,46.70
2018-05-04T19:53:01.561Z,45.80
2018-05-04T19:55:27.844Z,45.70
2018-05-04T19:57:54.807Z,45.50
2018-05-04T20:00:21.071Z,45.40
2018-05-04T20:02:47.414Z,46.70
2018-05-04T20:05:13.722Z,46.30
2018-05-04T20:07:40.014Z,48.80
2018-05-04T20:10:06.299Z,45.70
2018-05-04T20:12:32.587Z,46.90
2018-05-04T20:14:58.854Z,47.20
2018-05-04T20:17:25.063Z,47.30
2018-05-04T20:19:51.326Z,47.10
2018-05-04T20:22:18.358Z,47.00
2018-05-04T20:24:45.925Z,47.10
2018-05-04T20:27:12.319Z,46.80
2018-05-04T20:29:38.547Z,46.50
2018-05-04T20:32:04.755Z,47.00
2018-05-04T20:34:31.753Z,47.70
2018-05-04T20:37:04.904Z,47.60
2018-05-04T20:39:31.175Z,46.60
2018-05-04T20:41:57.436Z,47.60
2018-05-04T20:44:23.803Z,48.60
2018-05-04T20:46:50.509Z,48.00
2018-05-04T20:49:16.828Z,49.20
2018-05-04T20:51:43.058Z,49.60
2018-05-04T20:54:10.923Z,49.60
2018-05-04T20:56:38.547Z,49.20
2018-05-04T20:59:05.435Z,50.30
2018-05-04T21:01:33.109Z,49.30
2018-05-04T21:04:00.039Z,48.50
2018-05-04T21:06:28.032Z,50.00
2018-05-04T21:08:55.978Z,49.90
2018-05-04T21:11:23.081Z,51.20
2018-05-04T21:13:50.089Z,49.80
2018-05-04T21:16:17.214Z,50.60
2018-05-04T21:18:43.541Z,50.50
2018-05-04T21:21:09.783Z,48.40
2018-05-04T21:23:36.017Z,52.20
2018-05-04T21:26:03.834Z,51.70
2018-05-04T21:28:31.572Z,51.60
2018-05-04T21:30:58.972Z,52.40
2018-05-04T21:33:25.283Z,52.70
2018-05-04T21:35:52.563Z,53.10
2018-05-04T21:38:19.051Z,52.60
2018-05-04T21:40:45.434Z,53.80
2018-05-04T21:43:11.668Z,53.80
2018-05-04T21:45:38.630Z,54.30
2018-05-04T21:48:05.591Z,55.40
2018-05-04T21:50:31.868Z,55.80
2018-05-04T21:52:58.084Z,54.50
2018-05-04T21:55:24.373Z,55.50
2018-05-04T21:57:50.806Z,56.20
2018-05-04T22:00:17.507Z,55.90
2018-05-04T22:02:43.975Z,55.90
2018-05-04T22:05:10.178Z,55.80
2018-05-04T22:07:37.657Z,56.70
2018-05-04T22:10:04.793Z,56.60
2018-05-04T22:12:32.150Z,57.20
2018-05-04T22:15:00.271Z,58.20
2018-05-04T22:17:27.336Z,57.10
2018-05-04T22:19:53.650Z,57.10
2018-05-04T22:22:19.988Z,57.40
2018-05-04T22:24:46.985Z,58.30
2018-05-04T22:27:13.222Z,58.30
2018-05-04T22:29:39.473Z,58.10
2018-05-04T22:32:05.777Z,57.90
2018-05-04T22:34:31.976Z,57.30
2018-05-04T22:36:58.985Z,58.00
2018-05-04T22:39:25.248Z,58.00
2018-05-04T22:41:52.235Z,58.70
2018-05-04T22:44:18.468Z,58.60
2018-05-04T22:46:44.704Z,59.30
2018-05-04T22:49:10.954Z,59.40
2018-05-04T22:51:37.993Z,59.30
2018-05-04T22:54:04.251Z,59.70
2018-05-04T22:56:30.509Z,59.70
2018-05-04T22:58:56.682Z,59.60
2018-05-04T23:01:22.978Z,60.30
2018-05-04T23:03:49.194Z,60.20
2018-05-04T23:06:15.451Z,61.30
2018-05-04T23:08:42.545Z,60.20
2018-05-04T23:11:08.776Z,60.10
2018-05-04T23:13:35.720Z,62.20
2018-05-04T23:16:02.737Z,61.60
2018-05-04T23:18:28.963Z,61.60
2018-05-04T23:20:55.217Z,61.50
2018-05-04T23:23:21.416Z,62.10
2018-05-04T23:25:47.726Z,63.60
2018-05-04T23:28:13.960Z,63.80
2018-05-04T23:30:40.176Z,62.90
2018-05-04T23:33:06.420Z,63.10
2018-05-04T23:35:32.818Z,63.60
2018-05-04T23:37:59.083Z,63.30
2018-05-04T23:40:25.309Z,63.20
2018-05-04T23:42:51.548Z,63.80
2018-05-04T23:45:18.791Z,63.80
2018-05-04T23:47:45.760Z,64.60
2018-05-04T23:50:11.968Z,64.40
2018-05-04T23:52:38.193Z,65.60
2018-05-04T23:55:04.488Z,65.10
2018-05-04T23:57:30.712Z,65.80
2018-05-04T23:59:57.028Z,66.70
